Time;durP1;ratioP1;P1;durP2;ratioP2;P2;SDS_P1;SDS_P2;PMS_P1;PMS_P2;Temp;Humidity;BMP_temperature;BMP_pressure;BME280_temperature;BME280_humidity;BME280_pressure;Samples;Min_cycle;Max_cycle;Signal;HPM_P1;HPM_P2
2022/12/24 00:02:17;;;;;;;3.83;1.47;;;12.00;99.90;;;;;;5034922;28;20471;-63
2022/12/24 00:04:42;;;;;;;3.20;1.50;;;12.00;99.90;;;;;;5032493;28;20527;-63
2022/12/24 00:07:08;;;;;;;5.10;1.63;;;12.00;1.00;;;;;;5026928;28;20656;-64
2022/12/24 00:09:34;;;;;;;3.13;1.50;;;12.00;1.00;;;;;;5035433;28;20184;-63
2022/12/24 00:11:59;;;;;;;3.40;1.47;;;12.00;1.00;;;;;;5032093;28;20708;-63
2022/12/24 00:14:25;;;;;;;2.83;1.53;;;11.90;1.00;;;;;;5047045;28;20194;-63
2022/12/24 00:16:51;;;;;;;3.50;1.70;;;11.90;1.00;;;;;;5043720;28;20186;-63
2022/12/24 00:19:17;;;;;;;5.80;1.30;;;11.80;99.90;;;;;;5023281;28;20506;-63
2022/12/24 00:21:42;;;;;;;4.57;1.33;;;11.80;1.00;;;;;;5024867;28;20219;-63
2022/12/24 00:24:08;;;;;;;8.23;1.87;;;11.80;1.00;;;;;;5036417;28;20290;-63
2022/12/24 00:26:34;;;;;;;8.40;2.90;;;11.80;13.70;;;;;;5033091;28;20184;-63
2022/12/24 00:28:59;;;;;;;8.00;2.10;;;11.70;99.90;;;;;;5045194;28;20187;-63
2022/12/24 00:31:26;;;;;;;2.87;2.20;;;11.70;99.90;;;;;;5026958;28;20199;-63
2022/12/24 00:33:51;;;;;;;4.13;1.63;;;11.70;99.90;;;;;;5037117;28;20184;-63
2022/12/24 00:36:18;;;;;;;2.70;1.63;;;11.60;99.90;;;;;;5045438;28;20867;-63
2022/12/24 00:38:44;;;;;;;1.77;1.17;;;11.60;1.00;;;;;;5046069;28;20246;-63
2022/12/24 00:41:23;;;;;;;3.53;1.50;;;11.60;1.00;;;;;;5030506;28;20603;-63
2022/12/24 00:44:05;;;;;;;5.97;3.10;;;11.60;1.00;;;;;;5012635;28;20779;-63
2022/12/24 00:46:33;;;;;;;3.73;1.50;;;11.60;1.00;;;;;;5027945;28;20517;-62
2022/12/24 00:48:59;;;;;;;3.10;1.50;;;11.60;1.00;;;;;;5039751;28;20430;-63
2022/12/24 00:51:25;;;;;;;8.33;2.10;;;11.50;1.00;;;;;;5035393;28;20536;-63
2022/12/24 00:53:51;;;;;;;4.40;1.90;;;11.50;1.00;;;;;;5015729;28;20898;-63
2022/12/24 00:56:17;;;;;;;3.63;2.10;;;11.50;1.00;;;;;;5029785;28;20634;-63
2022/12/24 00:58:43;;;;;;;4.33;1.30;;;11.60;1.00;;;;;;5033308;28;20964;-63
2022/12/24 01:01:09;;;;;;;7.63;1.77;;;11.50;1.00;;;;;;5020096;28;20212;-63
2022/12/24 01:03:35;;;;;;;4.40;1.60;;;11.40;1.00;;;;;;5034517;28;20904;-63
2022/12/24 01:06:01;;;;;;;2.37;1.13;;;11.40;1.00;;;;;;5015059;28;20250;-61
2022/12/24 01:08:27;;;;;;;3.77;1.73;;;11.40;1.00;;;;;;5022787;28;20278;-64
2022/12/24 01:10:53;;;;;;;4.70;1.80;;;11.40;1.00;;;;;;5032313;28;20633;-63
2022/12/24 01:13:19;;;;;;;3.60;1.40;;;11.40;1.00;;;;;;5042590;28;20174;-62
2022/12/24 01:15:44;;;;;;;3.30;1.43;;;11.30;1.00;;;;;;5036911;28;20273;-62
2022/12/24 01:18:10;;;;;;;5.00;1.30;;;11.30;1.00;;;;;;5032262;28;20172;-63
2022/12/24 01:20:35;;;;;;;2.43;1.50;;;11.30;1.00;;;;;;5031865;28;20219;-63
2022/12/24 01:23:01;;;;;;;3.00;1.60;;;11.30;99.90;;;;;;5032329;28;20179;-63
2022/12/24 01:25:27;;;;;;;4.80;1.77;;;11.30;99.90;;;;;;5032363;28;20230;-63
2022/12/24 01:27:53;;;;;;;2.70;1.57;;;11.30;99.90;;;;;;5032108;28;20175;-63
2022/12/24 01:30:18;;;;;;;2.60;1.20;;;11.30;99.90;;;;;;5030499;28;20203;-63
2022/12/24 01:32:44;;;;;;;6.57;2.00;;;11.30;99.90;;;;;;5031725;28;20172;-64
2022/12/24 01:35:11;;;;;;;3.77;1.93;;;11.30;99.90;;;;;;5031873;28;20252;-64
2022/12/24 01:37:37;;;;;;;6.80;2.10;;;11.30;99.90;;;;;;5031760;28;20179;-63
2022/12/24 01:45:36;;;;;;;4.77;2.17;;;11.20;99.90;;;;;;5033411;28;20435;-63
2022/12/24 01:48:03;;;;;;;8.43;1.70;;;11.20;99.90;;;;;;5034162;28;20426;-63
2022/12/24 01:50:29;;;;;;;5.10;1.60;;;11.10;99.90;;;;;;5036930;28;20989;-63
2022/12/24 01:52:55;;;;;;;3.00;2.07;;;11.10;99.90;;;;;;5039555;28;20427;-63
2022/12/24 01:55:21;;;;;;;4.93;1.50;;;11.20;99.90;;;;;;5030979;28;20218;-63
2022/12/24 01:57:54;;;;;;;7.50;1.50;;;11.10;99.90;;;;;;5030340;28;20426;-63
2022/12/24 02:00:20;;;;;;;1.80;1.50;;;11.00;99.90;;;;;;5026661;28;20331;-62
2022/12/24 02:02:49;;;;;;;9.27;1.90;;;11.00;99.90;;;;;;5034580;28;20517;-63
2022/12/24 02:05:44;;;;;;;2.90;1.40;;;11.20;99.90;;;;;;5043225;28;20809;-63
2022/12/24 02:08:11;;;;;;;3.20;2.17;;;11.10;99.90;;;;;;5012422;28;20619;-63
2022/12/24 02:10:36;;;;;;;4.70;1.90;;;11.10;99.90;;;;;;5021483;28;20823;-63
2022/12/24 02:13:03;;;;;;;2.27;1.40;;;11.00;99.90;;;;;;5033711;28;20468;-63
2022/12/24 02:15:56;;;;;;;5.33;1.70;;;11.00;99.90;;;;;;5027302;28;20575;-63
2022/12/24 02:18:40;;;;;;;7.13;1.73;;;11.00;1.00;;;;;;5015714;28;20429;-61
2022/12/24 02:21:17;;;;;;;20.40;3.77;;;11.00;99.90;;;;;;5026327;28;20446;-63
2022/12/24 02:24:01;;;;;;;3.07;1.60;;;11.00;1.00;;;;;;5016382;28;20423;-63
2022/12/24 02:26:59;;;;;;;2.60;1.23;;;10.90;1.00;;;;;;5024195;28;20535;-63
2022/12/24 02:30:02;;;;;;;3.30;1.57;;;11.00;1.00;;;;;;5032778;28;20495;-62
2022/12/24 02:33:00;;;;;;;3.67;1.50;;;10.90;1.00;;;;;;5021894;28;20583;-63
2022/12/24 02:35:32;;;;;;;3.30;2.00;;;10.90;1.00;;;;;;5022828;28;20497;-63
2022/12/24 02:38:05;;;;;;;2.47;1.90;;;11.00;1.00;;;;;;5024399;28;20434;-63
2022/12/24 02:40:36;;;;;;;3.47;1.83;;;11.00;1.00;;;;;;5035322;28;20449;-63
2022/12/24 02:43:08;;;;;;;2.37;1.70;;;10.90;1.00;;;;;;5037995;28;20424;-63
2022/12/24 02:45:37;;;;;;;3.70;1.90;;;10.80;1.00;;;;;;5038061;28;20425;-63
2022/12/24 02:48:04;;;;;;;4.90;2.23;;;10.70;1.00;;;;;;5024071;28;20953;-63
2022/12/24 02:50:30;;;;;;;2.50;1.77;;;10.70;1.00;;;;;;5021678;28;20473;-63
2022/12/24 02:52:56;;;;;;;3.20;2.20;;;10.60;1.00;;;;;;5032632;28;21008;-63
2022/12/24 02:55:38;;;;;;;4.43;2.13;;;10.70;1.00;;;;;;5031734;28;20202;-62
2022/12/24 02:58:09;;;;;;;2.10;1.43;;;10.70;1.00;;;;;;5043641;28;20178;-61
2022/12/24 03:01:15;;;;;;;5.10;2.40;;;10.70;1.00;;;;;;5021790;28;20549;-62
2022/12/24 03:03:44;;;;;;;3.27;1.83;;;10.70;1.00;;;;;;5025793;28;20446;-62
2022/12/24 03:06:18;;;;;;;4.30;2.00;;;10.70;1.00;;;;;;5032517;28;20438;-63
2022/12/24 03:09:15;;;;;;;3.53;1.90;;;10.70;1.00;;;;;;5033092;28;20958;-61
2022/12/24 03:12:01;;;;;;;8.50;1.90;;;10.70;1.00;;;;;;5027106;28;20437;-63
2022/12/24 03:14:28;;;;;;;2.60;1.60;;;10.70;1.00;;;;;;5036803;28;20601;-63
2022/12/24 03:16:56;;;;;;;2.90;2.33;;;10.60;1.00;;;;;;5030133;28;20493;-62
2022/12/24 03:19:24;;;;;;;4.03;2.37;;;10.60;1.00;;;;;;5027667;28;20425;-61
2022/12/24 03:21:51;;;;;;;4.03;1.90;;;10.60;1.00;;;;;;5035828;28;20759;-63
2022/12/24 03:24:16;;;;;;;5.17;2.17;;;10.70;1.00;;;;;;5046121;28;20461;-61
2022/12/24 03:26:45;;;;;;;3.30;1.90;;;10.70;1.00;;;;;;5025308;28;20427;-63
2022/12/24 03:29:11;;;;;;;3.60;1.83;;;10.70;1.00;;;;;;5026153;28;20184;-63
2022/12/24 03:31:48;;;;;;;4.57;1.60;;;10.70;1.00;;;;;;5025836;28;20595;-63
2022/12/24 03:34:15;;;;;;;2.30;1.60;;;10.60;1.00;;;;;;5043721;28;20189;-63
2022/12/24 03:36:41;;;;;;;6.47;1.80;;;10.60;1.00;;;;;;5012881;28;20490;-63
2022/12/24 03:39:08;;;;;;;3.17;2.00;;;10.60;1.00;;;;;;5017213;28;20431;-62
2022/12/24 03:41:35;;;;;;;5.23;1.60;;;10.50;1.00;;;;;;5027351;28;20441;-63
2022/12/24 03:44:01;;;;;;;10.03;1.80;;;10.60;1.00;;;;;;5038023;28;20830;-63
2022/12/24 03:46:26;;;;;;;3.00;1.80;;;10.60;1.00;;;;;;5041146;28;20425;-59
2022/12/24 03:48:52;;;;;;;3.20;1.60;;;10.50;1.00;;;;;;5031776;28;20180;-61
2022/12/24 03:51:21;;;;;;;4.27;2.90;;;10.60;1.00;;;;;;5025500;28;20237;-63
2022/12/24 03:53:47;;;;;;;10.63;2.77;;;10.60;1.00;;;;;;5029865;28;20211;-63
2022/12/24 03:56:12;;;;;;;2.90;1.60;;;10.70;1.00;;;;;;5021855;28;20496;-63
2022/12/24 03:58:38;;;;;;;2.40;1.70;;;10.50;1.00;;;;;;5038491;28;20175;-63
2022/12/24 04:01:04;;;;;;;2.00;1.70;;;10.50;1.00;;;;;;5025816;28;20446;-63
2022/12/24 04:03:30;;;;;;;8.17;1.87;;;10.50;1.00;;;;;;5016140;28;20171;-63
2022/12/24 04:06:05;;;;;;;2.80;1.60;;;10.50;1.00;;;;;;5019210;28;20210;-63
2022/12/24 04:08:31;;;;;;;2.90;1.50;;;10.60;1.00;;;;;;5037247;28;20171;-63
2022/12/24 04:10:56;;;;;;;9.40;1.97;;;10.50;1.00;;;;;;5037029;28;20488;-63
2022/12/24 04:13:22;;;;;;;3.73;1.63;;;10.50;1.00;;;;;;5019146;28;20455;-62
2022/12/24 04:15:59;;;;;;;2.60;1.70;;;10.50;1.00;;;;;;5015500;28;20757;-61
2022/12/24 04:18:25;;;;;;;4.10;1.50;;;10.60;1.00;;;;;;5024509;28;20258;-63
2022/12/24 04:20:51;;;;;;;2.60;1.70;;;10.60;1.00;;;;;;5026628;28;20451;-62
2022/12/24 04:23:17;;;;;;;3.63;1.50;;;10.60;1.00;;;;;;5035890;28;20429;-59
2022/12/24 04:25:43;;;;;;;3.93;1.40;;;10.60;1.00;;;;;;5022857;28;20360;-62
2022/12/24 04:28:08;;;;;;;5.13;1.67;;;10.60;1.00;;;;;;5034249;28;20187;-63
2022/12/24 04:30:34;;;;;;;2.53;1.40;;;10.60;1.00;;;;;;5029941;28;20609;-61
2022/12/24 04:32:59;;;;;;;2.40;1.90;;;10.60;1.00;;;;;;5025871;28;20666;-63
2022/12/24 04:35:25;;;;;;;2.90;2.10;;;10.50;1.00;;;;;;5020277;28;20621;-62
2022/12/24 04:37:51;;;;;;;4.33;1.87;;;10.50;1.00;;;;;;5020820;28;20165;-63
2022/12/24 04:40:16;;;;;;;6.97;2.70;;;10.50;1.00;;;;;;5016777;28;20195;-62
2022/12/24 04:42:42;;;;;;;36.57;4.87;;;10.60;1.00;;;;;;5040164;28;20758;-63
2022/12/24 04:45:08;;;;;;;6.23;1.80;;;10.60;1.00;;;;;;5016941;28;20185;-63
2022/12/24 04:47:34;;;;;;;3.93;1.83;;;10.60;1.00;;;;;;5025552;28;20176;-60
2022/12/24 04:50:00;;;;;;;6.00;1.53;;;10.50;1.00;;;;;;5031282;28;20458;-62
2022/12/24 04:52:26;;;;;;;4.87;1.90;;;10.60;1.00;;;;;;5014698;28;20176;-61
2022/12/24 04:54:52;;;;;;;4.57;1.30;;;10.50;1.00;;;;;;5041359;28;20518;-63
2022/12/24 04:57:17;;;;;;;3.90;1.70;;;10.50;1.00;;;;;;5030094;28;20426;-63
2022/12/24 04:59:43;;;;;;;2.10;1.40;;;10.50;1.00;;;;;;5023522;28;20175;-63
2022/12/24 05:02:09;;;;;;;4.63;1.27;;;10.50;1.00;;;;;;5016436;28;20263;-63
2022/12/24 05:04:35;;;;;;;4.03;2.30;;;10.50;1.00;;;;;;5039863;28;20171;-60
2022/12/24 05:07:00;;;;;;;14.47;2.70;;;10.60;1.00;;;;;;5027591;28;20303;-63
2022/12/24 05:09:26;;;;;;;4.50;1.83;;;10.60;1.00;;;;;;5024782;28;20176;-63
2022/12/24 05:11:52;;;;;;;6.80;2.20;;;10.60;1.00;;;;;;5031662;28;20191;-62
2022/12/24 05:14:17;;;;;;;5.53;1.90;;;10.60;1.00;;;;;;5041502;28;20175;-63
2022/12/24 05:16:43;;;;;;;3.73;2.07;;;10.50;1.00;;;;;;5029529;28;20575;-61
2022/12/24 05:19:09;;;;;;;4.20;1.63;;;10.50;1.00;;;;;;5027553;28;20184;-61
2022/12/24 05:21:34;;;;;;;2.90;1.90;;;10.50;1.00;;;;;;5028079;28;20194;-62
2022/12/24 05:26:57;;;;;;;4.70;3.57;;;10.40;1.00;;;;;;5022554;28;20662;-61
2022/12/24 05:29:23;;;;;;;2.37;1.83;;;10.40;1.00;;;;;;5031652;28;20435;-62
2022/12/24 05:31:49;;;;;;;3.90;1.90;;;10.30;1.00;;;;;;5020712;28;20458;-62
2022/12/24 05:34:16;;;;;;;9.27;2.70;;;10.30;1.00;;;;;;5047594;28;20491;-63
2022/12/24 05:36:42;;;;;;;5.43;1.70;;;10.30;1.00;;;;;;5034263;28;20207;-63
2022/12/24 05:39:13;;;;;;;5.50;2.00;;;10.30;1.00;;;;;;5036677;28;20430;-65
2022/12/24 05:41:39;;;;;;;10.87;3.90;;;10.30;1.00;;;;;;5046885;28;20438;-64
2022/12/24 05:44:04;;;;;;;3.63;2.27;;;10.30;1.00;;;;;;5042900;28;20505;-63
2022/12/24 05:46:30;;;;;;;2.73;1.80;;;10.30;1.00;;;;;;5032056;28;20977;-63
2022/12/24 05:48:56;;;;;;;2.50;1.80;;;10.30;1.00;;;;;;5031691;28;20171;-63
2022/12/24 05:51:22;;;;;;;8.00;3.10;;;10.30;1.00;;;;;;5030880;28;20233;-63
2022/12/24 05:53:49;;;;;;;3.93;3.63;;;10.30;1.00;;;;;;5031406;28;20526;-63
2022/12/24 05:56:24;;;;;;;4.13;2.50;;;10.30;1.00;;;;;;5031534;28;20457;-63
2022/12/24 05:58:53;;;;;;;9.77;2.37;;;10.30;1.00;;;;;;5031153;28;20459;-63
2022/12/24 06:01:20;;;;;;;3.90;2.10;;;10.30;1.00;;;;;;5030718;28;20423;-63
2022/12/24 06:03:48;;;;;;;5.20;2.20;;;10.30;1.00;;;;;;5031298;28;20402;-63
2022/12/24 06:06:18;;;;;;;5.00;2.47;;;10.30;1.00;;;;;;5027892;28;20419;-64
2022/12/24 06:08:44;;;;;;;18.80;3.23;;;10.40;1.00;;;;;;5011253;28;20415;-62
2022/12/24 06:11:13;;;;;;;8.57;2.17;;;10.30;1.00;;;;;;5021221;28;20449;-63
2022/12/24 06:13:39;;;;;;;2.73;2.20;;;10.40;1.00;;;;;;5026497;28;20479;-63
2022/12/24 06:16:07;;;;;;;7.73;2.60;;;10.50;1.00;;;;;;5033800;28;21032;-63
2022/12/24 06:18:34;;;;;;;3.50;1.90;;;10.40;1.00;;;;;;5051231;28;20409;-63
2022/12/24 06:21:00;;;;;;;4.70;2.57;;;10.30;1.00;;;;;;5035931;28;20822;-64
2022/12/24 06:23:29;;;;;;;8.30;2.30;;;10.30;1.00;;;;;;5030559;28;20922;-65
2022/12/24 06:25:56;;;;;;;10.13;2.67;;;10.30;1.00;;;;;;5030901;28;20442;-63
2022/12/24 06:28:22;;;;;;;10.73;2.50;;;10.30;1.00;;;;;;5030273;28;20991;-65
2022/12/24 06:30:49;;;;;;;5.13;2.60;;;10.30;1.00;;;;;;5029965;28;20534;-65
2022/12/24 06:33:15;;;;;;;4.27;2.50;;;10.30;1.00;;;;;;5014692;28;20187;-63
2022/12/24 06:35:43;;;;;;;8.17;2.03;;;10.30;1.00;;;;;;5012669;28;20490;-65
2022/12/24 06:38:08;;;;;;;6.50;2.20;;;10.30;1.00;;;;;;5018544;28;20471;-63
2022/12/24 06:40:36;;;;;;;8.37;3.20;;;10.40;1.00;;;;;;5029958;28;20619;-62
2022/12/24 06:43:02;;;;;;;22.20;4.03;;;10.30;1.00;;;;;;5024886;28;20267;-62
2022/12/24 06:45:27;;;;;;;8.50;2.30;;;10.40;1.00;;;;;;5030534;28;20505;-64
2022/12/24 06:47:53;;;;;;;6.33;2.10;;;10.30;1.00;;;;;;5030710;28;20237;-64
2022/12/24 06:50:19;;;;;;;7.73;2.43;;;10.40;1.00;;;;;;5029298;28;20219;-65
2022/12/24 06:52:44;;;;;;;7.30;2.47;;;10.30;1.00;;;;;;5031806;28;20520;-64
2022/12/24 06:55:10;;;;;;;11.73;3.77;;;10.50;1.00;;;;;;5036983;28;20199;-65
2022/12/24 06:57:36;;;;;;;17.40;2.80;;;10.40;1.00;;;;;;5016535;28;20610;-65
2022/12/24 07:00:01;;;;;;;7.63;2.20;;;10.40;1.00;;;;;;5010306;28;20188;-65
2022/12/24 07:02:27;;;;;;;4.30;2.00;;;10.30;1.00;;;;;;5009519;28;20666;-65
2022/12/24 07:04:53;;;;;;;9.90;2.20;;;10.20;1.00;;;;;;5040878;28;20197;-65
2022/12/24 07:07:18;;;;;;;5.83;2.37;;;10.20;1.00;;;;;;5033043;28;20187;-65
2022/12/24 07:09:44;;;;;;;6.17;2.60;;;10.30;1.00;;;;;;5013248;28;20271;-65
2022/12/24 07:12:09;;;;;;;5.60;2.50;;;10.30;1.00;;;;;;5033879;28;20176;-65
2022/12/24 07:14:35;;;;;;;8.80;2.90;;;10.20;1.00;;;;;;5037523;28;20179;-63
2022/12/24 07:17:01;;;;;;;8.33;2.50;;;10.20;1.00;;;;;;5024758;28;20235;-63
2022/12/24 07:19:26;;;;;;;12.60;2.87;;;10.20;1.00;;;;;;5024362;28;20171;-63
2022/12/24 07:21:52;;;;;;;7.67;2.53;;;10.20;1.00;;;;;;5032384;28;20246;-63
2022/12/24 07:24:19;;;;;;;4.90;2.00;;;10.20;1.00;;;;;;5029821;28;20247;-63
2022/12/24 07:26:44;;;;;;;9.03;1.97;;;10.20;1.00;;;;;;5030298;28;20198;-63
2022/12/24 07:29:10;;;;;;;9.97;2.40;;;10.20;1.00;;;;;;5029475;28;20437;-63
2022/12/24 07:31:36;;;;;;;8.47;2.70;;;10.10;1.00;;;;;;5035338;28;20678;-63
2022/12/24 07:34:01;;;;;;;5.83;2.20;;;10.20;1.00;;;;;;5041917;28;20184;-65
2022/12/24 07:36:27;;;;;;;7.70;2.63;;;10.20;1.00;;;;;;5041614;28;20198;-65
2022/12/24 07:38:53;;;;;;;6.40;3.23;;;10.30;1.00;;;;;;5050336;28;20159;-65
2022/12/24 07:41:19;;;;;;;3.40;1.80;;;10.30;1.00;;;;;;5034846;28;20184;-65
2022/12/24 07:43:45;;;;;;;3.67;2.10;;;10.30;1.00;;;;;;5029251;28;20980;-62
2022/12/24 07:46:11;;;;;;;2.77;1.60;;;10.20;1.00;;;;;;5029355;28;20582;-65
2022/12/24 07:48:37;;;;;;;4.03;2.00;;;10.30;1.00;;;;;;5026736;28;20175;-63
2022/12/24 07:51:08;;;;;;;4.63;1.90;;;10.20;1.00;;;;;;5041907;28;20193;-63
2022/12/24 07:53:34;;;;;;;3.60;2.20;;;10.10;1.00;;;;;;5042667;28;20435;-63
2022/12/24 07:55:59;;;;;;;12.37;2.50;;;10.20;1.00;;;;;;5016460;28;20558;-63
2022/12/24 07:58:26;;;;;;;9.67;2.60;;;10.20;1.00;;;;;;5028020;28;20175;-63
2022/12/24 08:00:59;;;;;;;14.53;2.70;;;10.20;1.00;;;;;;5021917;28;20494;-64
2022/12/24 08:03:25;;;;;;;3.50;2.17;;;10.20;1.00;;;;;;5031466;28;20419;-63
2022/12/24 08:05:51;;;;;;;6.73;2.73;;;10.20;1.00;;;;;;5028106;28;20437;-64
2022/12/24 08:08:17;;;;;;;6.77;2.10;;;10.30;1.00;;;;;;5032490;28;20480;-64
2022/12/24 08:10:45;;;;;;;5.80;2.80;;;10.30;99.90;;;;;;5037166;28;20455;-64
2022/12/24 08:13:11;;;;;;;20.40;3.70;;;10.30;99.90;;;;;;5027397;28;20840;-67
2022/12/24 08:15:37;;;;;;;5.53;2.40;;;10.30;99.90;;;;;;5015343;28;20471;-66
2022/12/24 08:18:03;;;;;;;8.30;3.30;;;10.30;99.90;;;;;;5025623;28;20419;-64
2022/12/24 08:20:28;;;;;;;5.00;1.77;;;10.40;99.90;;;;;;5021259;28;20207;-65
2022/12/24 08:22:54;;;;;;;5.90;2.47;;;10.30;99.90;;;;;;5039238;28;20426;-65
2022/12/24 08:25:20;;;;;;;4.63;2.17;;;10.40;99.90;;;;;;5047852;28;20623;-65
2022/12/24 08:27:46;;;;;;;6.30;1.83;;;10.40;99.90;;;;;;5037361;28;20210;-67
2022/12/24 08:30:12;;;;;;;6.40;2.47;;;10.40;99.90;;;;;;5031780;28;20206;-63
2022/12/24 08:32:38;;;;;;;4.87;2.40;;;10.40;99.90;;;;;;5034369;28;20184;-64
2022/12/24 08:35:04;;;;;;;6.43;1.93;;;10.40;80.40;;;;;;5044722;28;20469;-67
2022/12/24 08:37:29;;;;;;;8.63;2.77;;;10.40;76.10;;;;;;5039427;28;20190;-64
2022/12/24 08:39:55;;;;;;;3.67;2.20;;;10.50;55.20;;;;;;5025185;28;20426;-66
2022/12/24 08:42:21;;;;;;;7.60;2.40;;;10.50;1.00;;;;;;5012779;28;20226;-64
2022/12/24 08:44:46;;;;;;;16.43;3.03;;;10.60;1.00;;;;;;5028527;28;20194;-64
2022/12/24 08:47:12;;;;;;;8.23;2.93;;;10.60;1.00;;;;;;5036355;28;20633;-64
2022/12/24 08:49:38;;;;;;;8.93;2.50;;;10.50;1.00;;;;;;5039072;28;20242;-64
2022/12/24 08:52:05;;;;;;;13.77;3.07;;;10.50;1.00;;;;;;5033935;28;20198;-65
2022/12/24 08:54:31;;;;;;;8.03;2.97;;;10.60;1.00;;;;;;5032080;28;20428;-65
2022/12/24 08:56:56;;;;;;;8.90;3.20;;;10.60;1.00;;;;;;5041352;28;21275;-64
2022/12/24 08:59:22;;;;;;;11.77;2.63;;;10.50;1.00;;;;;;5048103;28;20197;-65
2022/12/24 09:01:48;;;;;;;10.20;2.30;;;10.50;1.00;;;;;;5032048;28;20215;-65
2022/12/24 09:04:13;;;;;;;10.83;2.33;;;10.50;1.00;;;;;;5051425;28;20171;-66
2022/12/24 09:06:39;;;;;;;9.77;2.63;;;10.60;1.00;;;;;;5034261;28;20208;-64
2022/12/24 09:09:05;;;;;;;11.80;2.47;;;10.60;1.00;;;;;;5012208;28;20542;-64
2022/12/24 09:11:33;;;;;;;6.83;2.20;;;10.60;1.00;;;;;;5032926;23;20297;-66
2022/12/24 09:13:58;;;;;;;7.13;2.70;;;10.60;1.00;;;;;;5014424;28;21093;-67
2022/12/24 09:16:24;;;;;;;3.90;2.27;;;10.80;1.00;;;;;;5012698;28;20510;-67
2022/12/24 09:18:50;;;;;;;6.93;2.50;;;10.70;1.00;;;;;;5013734;28;20199;-66
2022/12/24 09:21:16;;;;;;;6.90;2.90;;;10.80;1.00;;;;;;5013312;28;20216;-67
2022/12/24 09:23:44;;;;;;;10.90;2.80;;;10.80;1.00;;;;;;5009002;28;20322;-67
2022/12/24 09:26:17;;;;;;;5.47;2.37;;;10.90;1.00;;;;;;4995619;28;20439;-67
2022/12/24 09:28:43;;;;;;;7.00;2.57;;;11.10;99.90;;;;;;4992855;28;20404;-66
2022/12/24 09:31:10;;;;;;;16.00;3.10;;;11.10;99.90;;;;;;4992664;28;20432;-67
2022/12/24 09:33:37;;;;;;;10.77;2.80;;;11.10;99.90;;;;;;4993371;28;20446;-68
2022/12/24 09:36:04;;;;;;;15.03;3.60;;;11.70;1.00;;;;;;4993125;28;20558;-67
2022/12/24 09:38:30;;;;;;;13.67;3.73;;;12.40;12.00;;;;;;4992813;28;20768;-67
2022/12/24 09:40:57;;;;;;;9.63;3.77;;;13.10;1.00;;;;;;4992481;28;20431;-65
2022/12/24 09:43:25;;;;;;;24.10;5.40;;;13.70;1.00;;;;;;4992227;28;20615;-66
2022/12/24 09:46:04;;;;;;;71.20;8.50;;;13.60;1.00;;;;;;4997884;28;20432;-67
2022/12/24 09:48:33;;;;;;;30.93;4.97;;;13.80;1.00;;;;;;4982112;28;21544;-67
2022/12/24 09:51:35;;;;;;;32.53;6.63;;;13.80;1.00;;;;;;4990855;28;20481;-66
2022/12/24 09:54:04;;;;;;;36.57;5.03;;;13.50;1.00;;;;;;4990309;28;20442;-67
2022/12/24 09:56:39;;;;;;;75.20;9.57;;;13.70;1.00;;;;;;4990047;28;21095;-67
2022/12/24 09:59:13;;;;;;;43.43;6.53;;;13.40;1.00;;;;;;4989868;28;20502;-67
2022/12/24 10:01:38;;;;;;;30.50;4.67;;;13.20;1.00;;;;;;4989894;28;21243;-66
2022/12/24 10:04:19;;;;;;;10.00;2.20;;;13.00;33.80;;;;;;4997081;28;20424;-66
2022/12/24 10:06:47;;;;;;;15.40;2.33;;;12.70;99.90;;;;;;4978490;28;20181;-66
2022/12/24 10:09:22;;;;;;;39.13;3.87;;;12.70;1.00;;;;;;4979813;28;20957;-66
2022/12/24 10:12:03;;;;;;;9.30;2.33;;;12.70;1.00;;;;;;4993530;28;20529;-67
2022/12/24 10:15:06;;;;;;;10.50;2.30;;;12.70;1.00;;;;;;4978396;28;20979;-67
2022/12/24 10:17:48;;;;;;;19.70;2.43;;;12.60;1.00;;;;;;4970501;28;20532;-66
2022/12/24 10:20:29;;;;;;;42.80;7.93;;;12.50;1.00;;;;;;4993666;28;20582;-66
2022/12/24 10:23:06;;;;;;;21.30;3.57;;;12.40;1.00;;;;;;5007730;28;20419;-66
2022/12/24 10:25:45;;;;;;;6.40;2.73;;;12.50;1.00;;;;;;4982761;28;20437;-66
2022/12/24 10:28:32;;;;;;;7.27;2.07;;;12.60;1.00;;;;;;4993468;28;20967;-66
2022/12/24 10:31:02;;;;;;;12.70;3.30;;;12.80;1.00;;;;;;4999235;28;20971;-66
2022/12/24 10:33:39;;;;;;;7.80;2.23;;;13.00;99.90;;;;;;4986920;28;20447;-66
2022/12/24 10:36:08;;;;;;;25.20;2.80;;;12.90;99.90;;;;;;4998174;28;20864;-66
2022/12/24 10:38:33;;;;;;;10.47;2.00;;;12.90;99.90;;;;;;4974766;28;20469;-65
2022/12/24 10:40:59;;;;;;;3.80;1.80;;;12.80;99.90;;;;;;4994575;28;20483;-67
2022/12/24 10:43:28;;;;;;;9.10;2.50;;;12.60;99.90;;;;;;4993639;28;20171;-67
2022/12/24 10:46:02;;;;;;;6.37;2.50;;;12.50;1.00;;;;;;4999404;28;20439;-66
2022/12/24 10:48:29;;;;;;;5.90;2.10;;;12.40;1.00;;;;;;4984436;28;20481;-66
2022/12/24 10:51:13;;;;;;;7.70;2.10;;;12.40;1.00;;;;;;4992245;28;20447;-66
2022/12/24 10:53:52;;;;;;;9.00;1.97;;;12.10;99.90;;;;;;4992789;28;20536;-66
2022/12/24 10:56:19;;;;;;;15.37;2.93;;;12.00;1.00;;;;;;4982370;28;20459;-66
2022/12/24 10:58:52;;;;;;;57.37;7.30;;;11.90;64.30;;;;;;4997713;28;21017;-65
2022/12/24 11:01:18;;;;;;;54.70;6.77;;;11.90;99.90;;;;;;4986128;28;20498;-67
2022/12/24 11:03:44;;;;;;;48.23;8.33;;;11.80;1.00;;;;;;5008822;28;20412;-66
2022/12/24 11:06:19;;;;;;;17.90;2.33;;;12.00;1.00;;;;;;4987868;28;20275;-68
2022/12/24 11:08:45;;;;;;;5.33;2.40;;;12.00;99.90;;;;;;4995700;28;20180;-66
2022/12/24 11:11:14;;;;;;;7.90;2.27;;;11.90;99.90;;;;;;4990226;28;21078;-69
2022/12/24 11:13:54;;;;;;;3.30;1.80;;;11.90;1.00;;;;;;5001026;28;20267;-67
2022/12/24 11:16:25;;;;;;;5.47;2.00;;;11.80;1.00;;;;;;4972062;28;20456;-66
2022/12/24 11:18:58;;;;;;;55.30;7.80;;;11.80;99.90;;;;;;4972574;28;20405;-66
2022/12/24 11:21:25;;;;;;;5.00;2.43;;;11.90;99.90;;;;;;4974953;28;20447;-66
2022/12/24 11:24:16;;;;;;;7.50;2.20;;;11.90;11.00;;;;;;4995798;28;20439;-68
2022/12/24 11:26:43;;;;;;;5.50;1.67;;;11.80;88.60;;;;;;4997495;28;20795;-67
2022/12/24 11:29:19;;;;;;;9.80;2.20;;;11.70;1.00;;;;;;4995549;28;20444;-65
2022/12/24 11:31:46;;;;;;;4.87;2.10;;;11.70;1.00;;;;;;4986207;28;20920;-66
2022/12/24 11:34:34;;;;;;;3.63;2.37;;;11.70;1.00;;;;;;4983817;28;20436;-65
2022/12/24 11:37:16;;;;;;;4.80;2.10;;;11.70;1.00;;;;;;4988559;28;20452;-66
2022/12/24 11:39:48;;;;;;;2.43;1.53;;;11.70;19.50;;;;;;4980946;28;20991;-67
2022/12/24 11:42:30;;;;;;;5.47;1.87;;;11.80;1.00;;;;;;4985063;28;20478;-66
2022/12/24 11:44:57;;;;;;;4.10;2.33;;;11.80;1.00;;;;;;4996200;28;20420;-66
2022/12/24 11:47:39;;;;;;;39.40;5.60;;;11.90;1.00;;;;;;5004703;28;20419;-66
2022/12/24 11:50:34;;;;;;;9.83;2.70;;;11.80;1.00;;;;;;4993259;28;20932;-66
2022/12/24 11:53:02;;;;;;;22.93;3.50;;;11.80;1.00;;;;;;4994840;28;20466;-65
2022/12/24 11:55:43;;;;;;;7.03;2.57;;;12.00;1.00;;;;;;4994559;28;21077;-68
2022/12/24 11:58:43;;;;;;;5.93;2.70;;;11.90;99.90;;;;;;4996447;28;20451;-66
2022/12/24 12:01:22;;;;;;;10.03;1.77;;;11.90;1.00;;;;;;4995033;28;20892;-67
2022/12/24 12:03:54;;;;;;;13.30;3.57;;;11.90;1.00;;;;;;5000229;28;20502;-65
2022/12/24 12:06:36;;;;;;;14.03;3.07;;;11.90;99.90;;;;;;4980096;28;20412;-65
2022/12/24 12:09:09;;;;;;;46.83;5.60;;;11.90;1.00;;;;;;4995060;28;20423;-67
2022/12/24 12:11:39;;;;;;;20.33;2.97;;;11.80;99.90;;;;;;4996383;28;20469;-67
2022/12/24 12:14:08;;;;;;;160.43;20.53;;;11.80;99.90;;;;;;4988631;28;20436;-68
2022/12/24 12:17:06;;;;;;;44.67;6.63;;;11.80;1.00;;;;;;5007225;28;20450;-66
2022/12/24 12:19:47;;;;;;;85.07;10.90;;;11.80;1.00;;;;;;5015218;28;20537;-67
2022/12/24 12:22:48;;;;;;;45.60;6.00;;;12.00;99.90;;;;;;5013925;28;20418;-67
2022/12/24 12:25:36;;;;;;;102.53;15.50;;;12.00;1.00;;;;;;4999920;28;21235;-67
2022/12/24 12:28:05;;;;;;;11.67;3.60;;;12.10;1.00;;;;;;4986067;28;20451;-67
2022/12/24 12:30:32;;;;;;;77.33;9.83;;;12.40;1.00;;;;;;4994126;28;20461;-69
2022/12/24 12:33:04;;;;;;;17.83;3.80;;;12.70;1.00;;;;;;4998409;28;20505;-69
2022/12/24 12:35:33;;;;;;;18.57;4.13;;;12.70;99.90;;;;;;5008205;28;20459;-69
2022/12/24 12:38:05;;;;;;;24.37;5.73;;;12.30;99.90;;;;;;4996344;28;20424;-68
2022/12/24 12:40:45;;;;;;;82.67;11.03;;;12.20;1.00;;;;;;4990773;28;20791;-67
2022/12/24 12:43:43;;;;;;;47.80;8.40;;;12.20;1.00;;;;;;5003702;28;20427;-68
2022/12/24 12:46:46;;;;;;;211.30;21.50;;;12.00;99.90;;;;;;4987985;28;20436;-69
2022/12/24 12:49:31;;;;;;;377.37;33.90;;;12.10;1.00;;;;;;4998955;28;20429;-68
2022/12/24 12:52:08;;;;;;;321.40;34.03;;;12.10;1.00;;;;;;4999284;28;20490;-67
2022/12/24 12:55:00;;;;;;;89.23;11.60;;;12.10;1.00;;;;;;4985960;28;20432;-67
2022/12/24 12:57:30;;;;;;;99.20;15.27;;;12.30;99.90;;;;;;4988526;28;20797;-67
2022/12/24 13:00:00;;;;;;;44.87;6.80;;;12.40;1.00;;;;;;4994237;28;20471;-68
2022/12/24 13:02:59;;;;;;;16.80;3.40;;;12.70;99.90;;;;;;5011349;28;20506;-67
2022/12/24 13:06:03;;;;;;;21.93;4.40;;;12.60;99.90;;;;;;5011309;28;20423;-67
2022/12/24 13:09:02;;;;;;;28.80;5.30;;;13.50;99.90;;;;;;5001375;28;20416;-67
2022/12/24 13:11:50;;;;;;;43.20;6.70;;;14.10;99.90;;;;;;4991286;28;20476;-66
2022/12/24 13:14:40;;;;;;;26.33;4.10;;;13.70;99.90;;;;;;4999857;28;20439;-67
2022/12/24 13:17:47;;;;;;;37.53;5.13;;;12.70;1.00;;;;;;4999763;28;20841;-68